.
WxDataArchive / Data Records for 2006-04-30
2006-04-29 April 2006 2006-05-01

Data Records for Sunday, 30 April 2006

Time	Temp	Chill	HIndex	Humid	Dewpt	 Wind 	HiWind	WindDir	Rain 	Barom 
-----	----	-----	------	-----	-----	------	------	-------	-----	----- 
00:00	54.4	54.4	54.4	54	38.1	2	4	90	0.00	30.157 
00:05	54.2	54.2	54.2	53	37.4	2	5	90	0.00	30.157 
00:10	54.1	54.1	54.1	53	37.4	1	4	112	0.00	30.157 
00:15	54.1	54.1	54.1	54	37.8	2	5	112	0.00	30.154 
00:20	53.9	53.9	53.9	54	37.6	1	6	90	0.00	30.154 
00:25	53.8	53.8	53.8	54	37.5	1	4	90	0.00	30.154 
00:30	53.8	53.8	53.8	54	37.5	1	4	90	0.00	30.145 
00:35	53.6	53.6	53.6	54	37.4	2	4	112	0.00	30.145 
00:40	53.6	53.6	53.6	53	36.9	1	4	90	0.00	30.145 
00:45	53.6	53.6	53.6	54	37.4	2	7	90	0.00	30.148 
00:50	53.6	53.6	53.6	53	36.9	2	4	112	0.00	30.148 
00:55	53.5	53.5	53.5	53	36.8	2	5	112	0.00	30.148 
01:00	53.5	53.5	53.5	53	36.8	2	5	112	0.00	30.151 
01:05	53.3	53.3	53.3	54	37.1	3	6	90	0.00	30.151 
01:10	53.3	53.3	53.3	54	37.1	3	7	90	0.00	30.151 
01:15	53.2	53.2	53.2	54	37.0	2	4	90	0.00	30.136 
01:20	53.1	53.1	53.1	54	36.9	2	4	90	0.00	30.136 
01:25	53.1	53.1	53.1	54	36.9	2	6	112	0.00	30.136 
01:30	53.1	53.1	53.1	55	37.4	2	5	90	0.00	30.131 
01:35	52.9	52.9	52.9	54	36.7	3	5	90	0.00	30.131 
01:40	52.9	52.9	52.9	54	36.7	3	7	90	0.00	30.131 
01:45	52.9	52.9	52.9	55	37.2	2	5	90	0.00	30.122 
01:50	52.9	52.9	52.9	56	37.6	2	6	90	0.00	30.122 
01:55	52.9	52.9	52.9	55	37.2	2	6	90	0.00	30.122 
02:00	52.9	52.9	52.9	56	37.6	1	2	90	0.00	30.125 
02:05	52.9	52.9	52.9	56	37.6	0	2	90	0.00	30.125 
02:10	52.9	52.9	52.9	56	37.6	1	2	90	0.00	30.125 
02:15	53.2	53.2	53.2	55	37.5	1	4	90	0.00	30.122 
02:20	53.3	53.3	53.3	54	37.1	1	4	45	0.00	30.122 
02:25	53.5	53.5	53.5	56	38.2	0	2	112	0.00	30.122 
02:30	53.5	53.5	53.5	55	37.7	1	3	90	0.00	30.120 
02:35	53.5	53.5	53.5	55	37.7	1	3	90	0.00	30.120 
02:40	53.5	53.5	53.5	55	37.7	1	4	90	0.00	30.120 
02:45	53.5	53.5	53.5	55	37.7	2	4	90	0.00	30.109 
02:50	53.5	53.5	53.5	56	38.2	2	4	112	0.00	30.109 
02:55	53.5	53.5	53.5	55	37.7	2	5	112	0.00	30.109 
03:00	53.5	53.5	53.5	56	38.2	2	4	90	0.00	30.112 
03:05	53.5	53.5	53.5	56	38.2	1	3	90	0.00	30.112 
03:10	53.3	53.3	53.3	57	38.5	2	5	90	0.00	30.112 
03:15	53.3	53.3	53.3	58	38.9	2	4	90	0.00	30.107 
03:20	53.2	53.2	53.2	59	39.2	1	3	90	0.00	30.107 
03:25	53.1	53.1	53.1	59	39.2	2	4	90	0.00	30.107 
03:30	53.1	53.1	53.1	59	39.2	2	6	90	0.00	30.104 
03:35	52.9	52.9	52.9	59	39.0	2	5	90	0.00	30.104 
03:40	52.9	52.9	52.9	60	39.4	1	3	90	0.00	30.104 
03:45	52.8	52.8	52.8	61	39.7	1	4	90	0.00	30.099 
03:50	52.6	52.6	52.6	62	40.0	2	5	112	0.00	30.099 
03:55	52.6	52.6	52.6	62	40.0	2	4	112	0.00	30.099 
04:00	52.5	52.5	52.5	63	40.3	2	4	90	0.00	30.100 
04:05	52.3	52.3	52.3	66	41.3	1	3	112	0.00	30.100 
04:10	52.2	52.2	52.2	66	41.2	2	3	112	0.00	30.100 
04:15	52.0	52.0	52.0	67	41.4	1	3	112	0.00	30.103 
04:20	51.9	51.9	51.9	69	42.1	1	3	90	0.00	30.103 
04:25	51.7	51.7	51.7	69	41.9	1	3	90	0.00	30.103 
04:30	51.6	51.6	51.6	71	42.5	1	3	90	0.00	30.100 
04:35	51.4	51.4	51.4	71	42.3	1	3	90	0.00	30.100 
04:40	51.3	51.3	51.3	72	42.6	1	4	90	0.00	30.100 
04:45	51.1	51.1	51.1	71	42.0	2	5	90	0.00	30.096 
04:50	51.1	51.1	51.1	72	42.4	2	4	90	0.00	30.096 
04:55	51.0	51.0	51.0	74	43.0	2	4	112	0.00	30.096 
05:00	50.8	50.8	50.8	73	42.5	3	5	90	0.00	30.090 
05:05	50.7	50.7	50.7	76	43.4	2	4	90	0.00	30.090 
05:10	50.5	50.5	50.5	74	42.5	3	5	90	0.00	30.090 
05:15	50.5	50.5	50.5	76	43.2	2	5	90	0.00	30.089 
05:20	50.4	50.4	50.4	76	43.1	3	6	112	0.01	30.089 
05:25	50.4	50.4	50.4	76	43.1	2	5	90	0.00	30.089 
05:30	50.2	50.2	50.2	77	43.3	2	4	90	0.00	30.083 
05:35	50.2	50.2	50.2	77	43.3	2	4	90	0.00	30.083 
05:40	50.2	50.2	50.2	76	42.9	2	5	90	0.00	30.083 
05:45	50.4	50.4	50.4	76	43.1	2	3	90	0.00	30.084 
05:50	50.5	50.5	50.5	76	43.2	1	3	90	0.00	30.084 
05:55	50.7	50.7	50.7	75	43.1	1	3	90	0.00	30.084 
06:00	50.8	50.8	50.8	76	43.5	1	3	90	0.00	30.089 
06:05	50.8	50.8	50.8	76	43.5	2	4	90	0.00	30.089 
06:10	50.8	50.8	50.8	77	43.9	1	4	90	0.00	30.089 
06:15	50.5	50.5	50.5	78	43.9	1	2	90	0.00	30.089 
06:20	50.4	50.4	50.4	81	44.8	0	2	90	0.01	30.089 
06:25	50.1	50.1	50.1	82	44.8	0	2	90	0.00	30.089 
06:30	49.9	49.9	49.9	83	44.9	1	2	90	0.01	30.086 
06:35	49.8	49.8	49.8	84	45.2	1	2	90	0.00	30.086 
06:40	49.6	49.6	49.6	83	44.7	2	4	90	0.00	30.086 
06:45	49.6	49.6	49.6	83	44.7	2	5	90	0.00	30.086 
06:50	49.5	49.5	49.5	82	44.2	3	6	90	0.00	30.086 
06:55	49.6	49.6	49.6	84	45.0	3	7	90	0.00	30.086 
07:00	49.5	49.5	49.5	84	44.9	2	6	90	0.00	30.079 
07:05	49.5	49.5	49.5	84	44.9	1	4	90	0.00	30.079 
07:10	49.5	49.5	49.5	84	44.9	0	2	90	0.00	30.079 
07:15	49.6	49.6	49.6	84	45.0	0	0	---	0.00	30.094 
07:20	49.6	49.6	49.6	85	45.3	0	2	90	0.00	30.094 
07:25	49.6	49.6	49.6	86	45.6	0	1	90	0.00	30.094 
07:30	49.6	49.6	49.6	87	45.9	0	1	90	0.00	30.101 
07:35	49.8	49.8	49.8	88	46.4	0	0	---	0.00	30.101 
07:40	49.8	49.8	49.8	88	46.4	0	1	90	0.01	30.101 
07:45	49.9	49.9	49.9	88	46.5	1	3	90	0.00	30.110 
07:50	50.1	50.1	50.1	82	44.8	1	4	112	0.00	30.110 
07:55	50.4	50.4	50.4	82	45.1	0	2	112	0.00	30.110 
08:00	50.5	50.5	50.5	83	45.5	0	1	112	0.00	30.113 
08:05	50.5	50.5	50.5	83	45.5	1	3	112	0.00	30.113 
08:10	50.4	50.4	50.4	83	45.4	0	1	112	0.00	30.113 
08:15	50.4	50.4	50.4	84	45.7	0	1	112	0.00	30.119 
08:20	50.4	50.4	50.4	84	45.7	0	2	112	0.00	30.119 
08:25	50.4	50.4	50.4	84	45.7	1	2	112	0.02	30.119 
08:30	50.1	50.1	50.1	85	45.8	1	2	112	0.01	30.116 
08:35	49.9	49.9	49.9	85	45.6	1	2	112	0.00	30.116 
08:40	49.8	49.8	49.8	87	46.1	0	1	112	0.02	30.116 
08:45	49.8	49.8	49.8	88	46.4	0	1	112	0.01	30.115 
08:50	49.6	49.6	49.6	88	46.2	0	2	112	0.01	30.115 
08:55	49.6	49.6	49.6	89	46.5	1	2	112	0.00	30.115 
09:00	49.8	49.8	49.8	88	46.4	1	3	90	0.00	30.109 
09:05	49.9	49.9	49.9	89	46.8	1	3	90	0.01	30.109 
09:10	50.1	50.1	50.1	89	47.0	1	3	90	0.00	30.109 
09:15	50.2	50.2	50.2	89	47.1	1	3	90	0.00	30.102 
09:20	50.4	50.4	50.4	90	47.6	1	3	90	0.00	30.102 
09:25	50.7	50.7	50.7	90	47.9	2	5	90	0.01	30.102 
09:30	51.0	51.0	51.0	89	47.9	3	5	90	0.00	30.093 
09:35	51.3	51.3	51.3	89	48.2	3	5	90	0.00	30.093 
09:40	51.4	51.4	51.4	89	48.3	2	5	90	0.01	30.093 
09:45	51.6	51.6	51.6	89	48.5	2	4	90	0.00	30.081 
09:50	51.7	51.7	51.7	89	48.6	2	5	112	0.01	30.081 
09:55	52.0	52.0	52.0	89	48.9	2	4	90	0.00	30.081 
10:00	52.3	52.3	52.3	89	49.2	2	4	90	0.00	30.079 
10:05	52.5	52.5	52.5	88	49.0	1	3	90	0.00	30.079 
10:10	52.5	52.5	52.5	88	49.0	1	3	90	0.00	30.079 
10:15	52.6	52.6	52.6	88	49.1	1	4	90	0.00	30.095 
10:20	52.8	52.8	52.8	89	49.6	1	3	112	0.00	30.095 
10:25	52.8	52.8	52.8	89	49.6	0	2	112	0.00	30.095 
10:30	52.9	52.9	52.9	90	50.0	0	2	135	0.00	30.106 
10:35	53.1	53.1	53.1	90	50.2	0	2	135	0.00	30.106 
10:40	53.2	53.2	53.2	90	50.3	0	2	135	0.00	30.106 
10:45	53.3	53.3	53.3	89	50.1	1	3	90	0.00	30.099 
10:50	53.5	53.5	53.5	89	50.3	1	3	90	0.00	30.099 
10:55	53.8	53.8	53.8	89	50.6	2	4	112	0.00	30.099 
11:00	53.9	53.9	53.9	88	50.4	1	4	112	0.00	30.095 
11:05	54.1	54.1	54.1	88	50.6	2	5	90	0.00	30.095 
11:10	54.2	54.2	54.2	88	50.7	1	4	90	0.00	30.095 
11:15	54.2	54.2	54.2	87	50.4	2	5	90	0.00	30.102 
11:20	54.4	54.4	54.4	87	50.6	1	3	112	0.00	30.102 
11:25	54.5	54.5	54.5	87	50.7	1	4	112	0.00	30.102 
11:30	54.5	54.5	54.5	87	50.7	1	3	112	0.00	30.114 
11:35	54.7	54.7	54.7	88	51.2	1	3	112	0.00	30.114 
11:40	54.7	54.7	54.7	87	50.9	1	4	112	0.00	30.114 
11:45	54.8	54.8	54.8	87	51.0	2	4	112	0.00	30.113 
11:50	55.1	55.1	55.1	87	51.3	2	6	90	0.00	30.113 
11:55	55.3	55.3	55.3	87	51.5	3	5	90	0.00	30.113 
12:00	55.6	55.6	55.6	87	51.8	4	6	90	0.00	30.097 
12:05	56.0	56.0	56.0	86	51.9	4	7	90	0.00	30.097 
12:10	56.3	56.3	56.3	85	51.8	3	6	90	0.01	30.097 
12:15	56.6	56.6	56.6	84	51.8	3	9	112	0.00	30.095 
12:20	56.9	56.9	56.9	84	52.1	3	7	90	0.00	30.095 
12:25	57.0	57.0	57.0	83	51.9	2	5	90	0.00	30.095 
12:30	57.3	57.3	57.3	84	52.5	2	7	112	0.00	30.097 
12:35	57.6	57.6	57.6	84	52.8	2	4	90	0.00	30.097 
12:40	57.8	57.8	57.8	83	52.7	2	5	90	0.00	30.097 
12:45	58.0	58.0	58.0	82	52.5	3	6	112	0.00	30.095 
12:50	58.1	58.1	58.1	84	53.3	2	5	112	0.00	30.095 
12:55	58.1	58.1	58.1	83	53.0	2	5	90	0.00	30.095 
13:00	58.1	58.1	58.1	83	53.0	3	9	90	0.00	30.091 
13:05	58.1	58.1	58.1	83	53.0	3	6	112	0.00	30.091 
13:10	58.0	58.0	58.0	84	53.2	3	6	90	0.01	30.091 
13:15	58.0	58.0	58.0	84	53.2	2	5	90	0.00	30.090 
13:20	57.8	57.8	57.8	84	53.0	2	4	112	0.00	30.090 
13:25	57.6	57.6	57.6	85	53.1	2	6	112	0.01	30.090 
13:30	57.5	57.5	57.5	84	52.7	3	5	90	0.00	30.085 
13:35	57.2	57.2	57.2	83	52.1	3	8	90	0.00	30.085 
13:40	57.0	57.0	57.0	83	51.9	2	6	112	0.00	30.085 
13:45	56.9	56.9	56.9	83	51.8	3	6	112	0.00	30.081 
13:50	56.9	56.9	56.9	83	51.8	3	9	90	0.01	30.081 
13:55	57.0	57.0	57.0	81	51.2	2	5	112	0.00	30.081 
14:00	57.0	57.0	57.0	83	51.9	1	4	112	0.00	30.082 
14:05	57.2	57.2	57.2	84	52.4	1	3	90	0.00	30.082 
14:10	57.0	57.0	57.0	82	51.6	2	7	90	0.00	30.082 
14:15	57.0	57.0	57.0	81	51.2	2	4	112	0.00	30.080 
14:20	56.9	56.9	56.9	81	51.1	3	9	90	0.00	30.080 
14:25	56.6	56.6	56.6	81	50.8	3	6	90	0.00	30.080 
14:30	56.5	56.5	56.5	80	50.4	3	7	90	0.00	30.070 
14:35	56.5	56.5	56.5	80	50.4	4	9	90	0.00	30.070 
14:40	56.6	56.6	56.6	81	50.8	4	9	90	0.00	30.070 
14:45	56.9	56.9	56.9	81	51.1	3	6	112	0.00	30.067 
14:50	57.0	57.0	57.0	79	50.5	2	5	112	0.00	30.067 
14:55	57.3	57.3	57.3	79	50.8	2	4	112	0.00	30.067 
15:00	57.5	57.5	57.5	78	50.7	3	9	112	0.00	30.076 
15:05	57.6	57.6	57.6	76	50.1	3	6	112	0.00	30.076 
15:10	57.6	57.6	57.6	75	49.7	3	8	90	0.00	30.076 
15:15	57.8	57.8	57.8	76	50.3	3	8	112	0.00	30.077 
15:20	57.6	57.6	57.6	75	49.7	3	7	112	0.00	30.077 
15:25	57.6	57.6	57.6	76	50.1	2	6	112	0.00	30.077 
15:30	57.6	57.6	57.6	77	50.4	1	4	90	0.00	30.081 
15:35	57.6	57.6	57.6	74	49.4	3	5	112	0.00	30.081 
15:40	57.6	57.6	57.6	73	49.0	2	5	90	0.00	30.081 
15:45	57.8	57.8	57.8	73	49.2	3	6	112	0.00	30.075 
15:50	57.8	57.8	57.8	74	49.6	2	4	90	0.00	30.075 
15:55	57.8	57.8	57.8	74	49.6	1	2	112	0.00	30.075 
16:00	57.8	57.8	57.8	75	49.9	1	2	135	0.00	30.082 
16:05	57.8	57.8	57.8	75	49.9	1	3	112	0.00	30.082 
16:10	57.8	57.8	57.8	75	49.9	1	4	90	0.00	30.082 
16:15	57.8	57.8	57.8	75	49.9	0	2	90	0.00	30.082 
16:20	58.0	58.0	58.0	74	49.8	1	3	90	0.00	30.082 
16:25	58.1	58.1	58.1	75	50.2	1	4	90	0.00	30.082 
16:30	58.3	58.3	58.3	73	49.7	1	3	112	0.00	30.069 
16:35	58.4	58.4	58.4	73	49.8	1	2	112	0.00	30.069 
16:40	58.6	58.6	58.6	72	49.6	1	3	112	0.00	30.069 
16:45	58.7	58.7	58.7	72	49.7	1	4	112	0.00	30.063 
16:50	58.9	58.9	58.9	72	49.9	1	3	112	0.00	30.063 
16:55	59.0	59.0	59.0	72	50.0	1	2	112	0.00	30.063 
17:00	59.2	59.2	59.2	72	50.2	1	3	112	0.00	30.064 
17:05	59.2	59.2	59.2	72	50.2	1	3	112	0.00	30.064 
17:10	59.3	59.3	59.3	71	49.9	1	3	112	0.00	30.064 
17:15	59.5	59.5	59.5	70	49.7	1	4	68	0.00	30.056 
17:20	59.6	59.6	59.6	71	50.2	1	3	68	0.00	30.056 
17:25	59.8	59.8	59.8	71	50.4	0	2	68	0.00	30.056 
17:30	59.9	59.9	59.9	70	50.1	1	3	68	0.00	30.063 
17:35	60.1	60.1	60.1	70	50.3	0	4	135	0.00	30.063 
17:40	60.1	60.1	60.1	69	49.9	1	3	135	0.00	30.063 
17:45	60.2	60.2	60.2	68	49.6	0	2	112	0.00	30.061 
17:50	60.4	60.4	60.4	68	49.8	0	2	112	0.00	30.061 
17:55	60.2	60.2	60.2	68	49.6	1	2	112	0.00	30.061 
18:00	60.2	60.2	60.2	68	49.6	0	1	112	0.00	30.051 
18:05	60.2	60.2	60.2	68	49.6	0	2	112	0.00	30.051 
18:10	60.1	60.1	60.1	69	49.9	0	0	---	0.00	30.051 
18:15	59.9	59.9	59.9	70	50.1	0	1	112	0.00	30.055 
18:20	59.8	59.8	59.8	69	49.6	0	1	112	0.00	30.055 
18:25	59.6	59.6	59.6	70	49.8	0	1	112	0.00	30.055 
18:30	59.5	59.5	59.5	73	50.8	0	0	---	0.00	30.055 
18:35	59.2	59.2	59.2	77	52.0	0	0	---	0.00	30.055 
18:40	58.9	58.9	58.9	78	52.0	0	0	---	0.01	30.055 
18:45	58.6	58.6	58.6	80	52.4	0	0	---	0.00	30.054 
18:50	58.3	58.3	58.3	81	52.5	0	0	---	0.00	30.054 
18:55	58.1	58.1	58.1	82	52.6	0	0	---	0.00	30.054 
19:00	57.8	57.8	57.8	84	53.0	0	1	112	0.00	30.069 
19:05	57.5	57.5	57.5	84	52.7	0	1	112	0.00	30.069 
19:10	57.3	57.3	57.3	84	52.5	0	0	---	0.00	30.069 
19:15	57.0	57.0	57.0	85	52.5	0	0	---	0.00	30.082 
19:20	57.0	57.0	57.0	85	52.5	0	0	---	0.00	30.082 
19:25	56.9	56.9	56.9	85	52.4	0	0	---	0.00	30.082 
19:30	56.7	56.7	56.7	83	51.6	0	1	270	0.00	30.078 
19:35	56.7	56.7	56.7	80	50.6	0	2	270	0.00	30.078 
19:40	56.9	56.9	56.9	81	51.1	0	1	270	0.00	30.078 
19:45	56.9	56.9	56.9	81	51.1	0	1	270	0.00	30.082 
19:50	56.9	56.9	56.9	81	51.1	1	2	90	0.00	30.082 
19:55	56.9	56.9	56.9	81	51.1	1	3	90	0.00	30.082 
20:00	56.9	56.9	56.9	81	51.1	1	2	112	0.00	30.085 
20:05	56.9	56.9	56.9	81	51.1	1	4	112	0.00	30.085 
20:10	56.9	56.9	56.9	81	51.1	2	7	90	0.00	30.085 
20:15	56.9	56.9	56.9	81	51.1	2	4	112	0.00	30.083 
20:20	56.7	56.7	56.7	82	51.3	2	7	90	0.00	30.083 
20:25	56.6	56.6	56.6	83	51.5	2	4	90	0.00	30.083 
20:30	56.5	56.5	56.5	83	51.4	2	4	112	0.00	30.084 
20:35	56.3	56.3	56.3	84	51.5	2	5	112	0.00	30.084 
20:40	56.2	56.2	56.2	85	51.7	2	4	112	0.01	30.084 
20:45	56.0	56.0	56.0	85	51.6	2	5	112	0.00	30.085 
20:50	55.9	55.9	55.9	85	51.5	2	5	112	0.00	30.085 
20:55	55.7	55.7	55.7	85	51.3	2	7	90	0.00	30.085 
21:00	55.7	55.7	55.7	86	51.6	3	6	90	0.00	30.089 
21:05	55.6	55.6	55.6	86	51.5	3	11	90	0.00	30.089 
21:10	55.6	55.6	55.6	87	51.8	2	6	112	0.01	30.089 
21:15	55.4	55.4	55.4	87	51.6	2	4	112	0.00	30.098 
21:20	55.3	55.3	55.3	88	51.8	3	7	90	0.00	30.098 
21:25	55.1	55.1	55.1	88	51.6	2	4	112	0.00	30.098 
21:30	55.1	55.1	55.1	88	51.6	2	7	90	0.01	30.106 
21:35	55.0	55.0	55.0	88	51.5	1	4	90	0.00	30.106 
21:40	54.8	54.8	54.8	89	51.6	1	4	90	0.00	30.106 
21:45	54.7	54.7	54.7	89	51.5	1	3	90	0.01	30.117 
21:50	54.7	54.7	54.7	90	51.8	0	2	90	0.00	30.117 
21:55	54.5	54.5	54.5	90	51.6	1	3	90	0.01	30.117 
22:00	54.5	54.5	54.5	90	51.6	1	2	112	0.00	30.116 
22:05	54.4	54.4	54.4	90	51.5	1	3	90	0.01	30.116 
22:10	54.4	54.4	54.4	90	51.5	1	3	112	0.00	30.116 
22:15	54.2	54.2	54.2	91	51.6	1	4	90	0.00	30.114 
22:20	54.2	54.2	54.2	91	51.6	1	3	90	0.01	30.114 
22:25	54.2	54.2	54.2	91	51.6	1	4	112	0.00	30.114 
22:30	54.1	54.1	54.1	91	51.5	1	4	112	0.00	30.115 
22:35	54.1	54.1	54.1	91	51.5	2	6	90	0.01	30.115 
22:40	53.9	53.9	53.9	91	51.3	1	4	68	0.00	30.115 
22:45	53.9	53.9	53.9	91	51.3	1	3	90	0.00	30.112 
22:50	53.9	53.9	53.9	92	51.6	0	1	112	0.01	30.112 
22:55	53.8	53.8	53.8	92	51.5	1	2	112	0.00	30.112 
23:00	53.8	53.8	53.8	92	51.5	1	2	112	0.00	30.108 
23:05	53.8	53.8	53.8	92	51.5	1	2	112	0.00	30.108 
23:10	53.6	53.6	53.6	92	51.3	1	2	112	0.00	30.108 
23:15	53.6	53.6	53.6	92	51.3	0	2	112	0.00	30.106 
23:20	53.6	53.6	53.6	92	51.3	1	3	112	0.01	30.106 
23:25	53.6	53.6	53.6	92	51.3	1	3	90	0.00	30.106 
23:30	53.6	53.6	53.6	92	51.3	0	2	90	0.01	30.110 
23:35	53.6	53.6	53.6	92	51.3	0	2	90	0.00	30.110 
23:40	53.5	53.5	53.5	93	51.5	1	3	90	0.00	30.110 
23:45	53.5	53.5	53.5	93	51.5	1	3	90	0.01	30.113 
23:50	53.5	53.5	53.5	93	51.5	1	2	112	0.01	30.113 
23:55	53.5	53.5	53.5	93	51.5	1	3	112	0.01	30.113 

CoCoRaHS
IN-AL-39
A2 Web Hosting
Creative Commons License
GoDaddy
Look for:

loaded 2017-10-19 14:46:18 • last modified 2010-11-18 10:43:29
Privacy PolicyDisclaimer
• wx.awcolley.com is powered by PmWiki v.2002016 •
• all content (unless otherwise noted) © 2017 A W Colley